createdAt,value
2017-06-22T00:00:21.783Z,1019.66
2017-06-22T00:01:22.426Z,1019.70
2017-06-22T00:02:23.069Z,1019.66
2017-06-22T00:03:23.716Z,1019.65
2017-06-22T00:04:24.508Z,1019.60
2017-06-22T00:05:25.151Z,1019.65
2017-06-22T00:06:25.795Z,1019.62
2017-06-22T00:07:26.439Z,1019.62
2017-06-22T00:08:27.081Z,1019.56
2017-06-22T00:09:27.726Z,1019.55
2017-06-22T00:10:28.370Z,1019.50
2017-06-22T00:11:29.012Z,1019.45
2017-06-22T00:12:29.855Z,1019.50
2017-06-22T00:13:30.499Z,1019.50
2017-06-22T00:14:31.139Z,1019.43
2017-06-22T00:15:31.785Z,1019.36
2017-06-22T00:16:32.429Z,1019.49
2017-06-22T00:17:33.077Z,1019.40
2017-06-22T00:18:33.716Z,1019.49
2017-06-22T00:19:34.361Z,1019.40
2017-06-22T00:20:35.206Z,1019.43
2017-06-22T00:21:35.850Z,1019.54
2017-06-22T00:22:36.492Z,1019.40
2017-06-22T00:23:37.137Z,1019.45
2017-06-22T00:24:37.781Z,1019.31
2017-06-22T00:25:38.426Z,1019.45
2017-06-22T00:26:39.071Z,1019.37
2017-06-22T00:27:39.716Z,1019.31
2017-06-22T00:28:40.557Z,1019.33
2017-06-22T00:29:41.199Z,1019.42
2017-06-22T00:30:41.843Z,1019.42
2017-06-22T00:31:42.487Z,1019.38
2017-06-22T00:32:43.130Z,1019.35
2017-06-22T00:33:43.771Z,1019.29
2017-06-22T00:34:44.414Z,1019.35
2017-06-22T00:35:45.059Z,1019.35
2017-06-22T00:36:45.700Z,1019.29
2017-06-22T00:37:46.644Z,1019.40
2017-06-22T00:38:47.291Z,1019.29
2017-06-22T00:39:47.935Z,1019.31
2017-06-22T00:40:48.575Z,1019.34
2017-06-22T00:41:49.218Z,1019.32
2017-06-22T00:42:49.861Z,1019.23
2017-06-22T00:43:50.503Z,1019.29
2017-06-22T00:44:51.146Z,1019.21
2017-06-22T00:45:51.994Z,1019.21
2017-06-22T00:46:52.636Z,1019.26
2017-06-22T00:47:53.281Z,1019.27
2017-06-22T00:48:53.921Z,1019.28
2017-06-22T00:49:54.565Z,1019.28
2017-06-22T00:50:55.211Z,1019.34
2017-06-22T00:51:55.853Z,1019.30
2017-06-22T00:52:56.502Z,1019.27
2017-06-22T00:53:57.293Z,1019.29
2017-06-22T00:54:57.937Z,1019.26
2017-06-22T00:55:58.584Z,1019.33
2017-06-22T00:56:59.226Z,1019.27
2017-06-22T00:57:59.868Z,1019.32
2017-06-22T00:59:00.510Z,1019.28
2017-06-22T01:00:01.156Z,1019.29
2017-06-22T01:01:01.796Z,1019.29
2017-06-22T01:02:02.641Z,1019.31
2017-06-22T01:03:03.284Z,1019.30
2017-06-22T01:04:03.925Z,1019.37
2017-06-22T01:05:04.572Z,1019.31
2017-06-22T01:06:05.213Z,1019.31
2017-06-22T01:07:05.857Z,1019.25
2017-06-22T01:08:06.504Z,1019.23
2017-06-22T01:09:07.147Z,1019.25
2017-06-22T01:10:07.789Z,1019.32
2017-06-22T01:11:08.633Z,1019.32
2017-06-22T01:12:09.274Z,1019.32
2017-06-22T01:13:09.918Z,1019.32
2017-06-22T01:14:10.562Z,1019.25
2017-06-22T01:15:11.205Z,1019.28
2017-06-22T01:16:11.846Z,1019.32
2017-06-22T01:17:12.491Z,1019.29
2017-06-22T01:18:13.135Z,1019.23
2017-06-22T01:19:13.926Z,1019.23
2017-06-22T01:20:14.571Z,1019.31
2017-06-22T01:21:15.215Z,1019.29
2017-06-22T01:22:15.856Z,1019.28
2017-06-22T01:23:16.501Z,1019.23
2017-06-22T01:24:17.144Z,1019.20
2017-06-22T01:25:17.787Z,1019.22
2017-06-22T01:26:18.429Z,1019.24
2017-06-22T01:27:19.273Z,1019.22
2017-06-22T01:28:19.918Z,1019.15
2017-06-22T01:29:20.564Z,1019.16
2017-06-22T01:30:21.209Z,1019.22
2017-06-22T01:31:21.853Z,1019.19
2017-06-22T01:32:22.497Z,1019.19
2017-06-22T01:33:23.139Z,1019.21
2017-06-22T01:34:23.781Z,1019.22
2017-06-22T01:35:24.624Z,1019.19
2017-06-22T01:36:25.269Z,1019.15
2017-06-22T01:37:25.912Z,1019.09
2017-06-22T01:38:26.554Z,1019.07
2017-06-22T01:39:27.198Z,1019.08
2017-06-22T01:40:27.842Z,1019.11
2017-06-22T01:41:28.486Z,1019.06
2017-06-22T01:42:29.129Z,1018.97
2017-06-22T01:43:29.973Z,1019.05
2017-06-22T01:44:30.618Z,1019.07
2017-06-22T01:45:31.263Z,1019.02
2017-06-22T01:46:31.905Z,1019.14
2017-06-22T01:47:32.547Z,1019.10
2017-06-22T01:48:33.192Z,1019.05
2017-06-22T01:49:33.835Z,1019.12
2017-06-22T01:50:34.477Z,1019.13
2017-06-22T01:51:35.119Z,1019.19
2017-06-22T01:52:35.912Z,1019.10
2017-06-22T01:53:36.558Z,1019.18
2017-06-22T01:54:37.202Z,1019.19
2017-06-22T01:55:37.842Z,1019.13
2017-06-22T01:56:38.488Z,1019.18
2017-06-22T01:57:39.129Z,1019.17
2017-06-22T01:58:39.773Z,1019.10
2017-06-22T01:59:40.417Z,1019.12
2017-06-22T02:00:41.263Z,1019.09
2017-06-22T02:01:41.905Z,1019.10
2017-06-22T02:02:42.550Z,1019.10
2017-06-22T02:03:43.192Z,1019.12
2017-06-22T02:04:43.838Z,1019.11
2017-06-22T02:05:44.481Z,1019.15
2017-06-22T02:06:45.127Z,1019.13
2017-06-22T02:07:45.771Z,1019.07
2017-06-22T02:08:46.610Z,1019.12
2017-06-22T02:09:47.254Z,1019.09
2017-06-22T02:10:47.898Z,1019.06
2017-06-22T02:11:48.544Z,1019.13
2017-06-22T02:12:49.187Z,1019.14
2017-06-22T02:13:49.831Z,1019.10
2017-06-22T02:14:50.472Z,1019.19
2017-06-22T02:15:51.116Z,1019.07
2017-06-22T02:16:52.060Z,1019.12
2017-06-22T02:17:52.706Z,1019.13
2017-06-22T02:18:53.347Z,1019.16
2017-06-22T02:19:54.051Z,1019.10
2017-06-22T02:20:54.694Z,1019.10
2017-06-22T02:21:55.337Z,1019.09
2017-06-22T02:22:55.983Z,1019.06
2017-06-22T02:23:56.624Z,1019.11
2017-06-22T02:24:57.266Z,1019.06
2017-06-22T02:25:58.109Z,1019.05
2017-06-22T02:26:58.756Z,1019.08
2017-06-22T02:27:59.399Z,1019.11
2017-06-22T02:29:00.041Z,1019.05
2017-06-22T02:30:00.683Z,1019.10
2017-06-22T02:31:01.326Z,1019.04
2017-06-22T02:32:01.970Z,1019.03
2017-06-22T02:33:02.611Z,1019.03
2017-06-22T02:34:03.456Z,1019.09
2017-06-22T02:35:04.101Z,1019.06
2017-06-22T02:36:04.742Z,1019.09
2017-06-22T02:37:05.384Z,1019.03
2017-06-22T02:38:06.026Z,1019.03
2017-06-22T02:39:06.672Z,1019.01
2017-06-22T02:40:07.317Z,1019.04
2017-06-22T02:41:07.963Z,1018.98
2017-06-22T02:42:08.753Z,1019.10
2017-06-22T02:43:09.396Z,1019.09
2017-06-22T02:44:10.043Z,1019.03
2017-06-22T02:45:10.689Z,1019.03
2017-06-22T02:46:11.329Z,1019.02
2017-06-22T02:47:11.973Z,1019.00
2017-06-22T02:48:12.617Z,1019.05
2017-06-22T02:49:13.262Z,1019.06
2017-06-22T02:50:14.155Z,1019.10
2017-06-22T02:51:14.800Z,1019.15
2017-06-22T02:52:15.445Z,1019.10
2017-06-22T02:53:16.089Z,1019.15
2017-06-22T02:54:16.732Z,1019.12
2017-06-22T02:55:17.374Z,1019.13
2017-06-22T02:56:18.016Z,1019.15
2017-06-22T02:57:18.661Z,1019.17
2017-06-22T02:58:19.506Z,1019.15
2017-06-22T02:59:20.148Z,1019.12
2017-06-22T03:00:20.789Z,1019.13
2017-06-22T03:01:21.434Z,1019.14
2017-06-22T03:02:22.078Z,1019.11
2017-06-22T03:03:22.719Z,1019.12
2017-06-22T03:04:23.364Z,1019.15
2017-06-22T03:05:24.007Z,1019.07
2017-06-22T03:06:24.650Z,1019.13
2017-06-22T03:07:25.491Z,1019.15
2017-06-22T03:08:26.135Z,1019.14
2017-06-22T03:09:26.779Z,1019.16
2017-06-22T03:10:27.429Z,1019.15
2017-06-22T03:11:28.127Z,1019.08
2017-06-22T03:12:28.770Z,1019.09
2017-06-22T03:13:29.416Z,1019.14
2017-06-22T03:14:30.059Z,1019.14
2017-06-22T03:15:30.903Z,1019.10
2017-06-22T03:16:31.547Z,1019.12
2017-06-22T03:17:32.189Z,1019.18
2017-06-22T03:18:32.833Z,1019.21
2017-06-22T03:19:33.480Z,1019.21
2017-06-22T03:20:34.122Z,1019.28
2017-06-22T03:21:34.763Z,1019.20
2017-06-22T03:22:35.411Z,1019.25
2017-06-22T03:23:36.200Z,1019.28
2017-06-22T03:24:36.841Z,1019.31
2017-06-22T03:25:37.486Z,1019.32
2017-06-22T03:26:38.129Z,1019.28
2017-06-22T03:27:38.769Z,1019.31
2017-06-22T03:28:39.413Z,1019.33
2017-06-22T03:29:40.060Z,1019.31
2017-06-22T03:30:40.705Z,1019.33
2017-06-22T03:31:41.545Z,1019.43
2017-06-22T03:32:42.189Z,1019.43
2017-06-22T03:33:42.835Z,1019.38
2017-06-22T03:34:43.477Z,1019.38
2017-06-22T03:35:44.122Z,1019.38
2017-06-22T03:36:44.766Z,1019.39
2017-06-22T03:37:45.407Z,1019.40
2017-06-22T03:38:46.049Z,1019.43
2017-06-22T03:39:46.697Z,1019.42
2017-06-22T03:40:47.539Z,1019.41
2017-06-22T03:41:48.183Z,1019.46
2017-06-22T03:42:48.825Z,1019.44
2017-06-22T03:43:49.467Z,1019.50
2017-06-22T03:44:50.111Z,1019.47
2017-06-22T03:45:50.756Z,1019.47
2017-06-22T03:46:51.397Z,1019.43
2017-06-22T03:47:52.042Z,1019.44
2017-06-22T03:48:52.838Z,1019.43
2017-06-22T03:49:53.482Z,1019.40
2017-06-22T03:50:54.123Z,1019.41
2017-06-22T03:51:54.766Z,1019.43
2017-06-22T03:52:55.412Z,1019.46
2017-06-22T03:53:56.055Z,1019.39
2017-06-22T03:54:56.699Z,1019.44
2017-06-22T03:55:57.340Z,1019.39
2017-06-22T03:56:58.234Z,1019.47
2017-06-22T03:57:58.877Z,1019.47
2017-06-22T03:58:59.523Z,1019.48
2017-06-22T04:00:00.169Z,1019.40
2017-06-22T04:01:00.812Z,1019.37
2017-06-22T04:02:01.455Z,1019.35
2017-06-22T04:03:02.101Z,1019.40
2017-06-22T04:04:02.801Z,1019.46
2017-06-22T04:05:03.745Z,1019.48
2017-06-22T04:06:04.388Z,1019.48
2017-06-22T04:07:05.032Z,1019.46
2017-06-22T04:08:05.676Z,1019.44
2017-06-22T04:09:06.319Z,1019.44
2017-06-22T04:10:06.961Z,1019.47
2017-06-22T04:11:07.605Z,1019.41
2017-06-22T04:12:08.250Z,1019.42
2017-06-22T04:13:09.044Z,1019.50
2017-06-22T04:14:09.686Z,1019.48
2017-06-22T04:15:10.330Z,1019.45
2017-06-22T04:16:10.975Z,1019.45
2017-06-22T04:17:11.616Z,1019.41
2017-06-22T04:18:12.258Z,1019.42
2017-06-22T04:19:12.902Z,1019.45
2017-06-22T04:20:13.542Z,1019.52
2017-06-22T04:21:14.185Z,1019.55
2017-06-22T04:22:15.030Z,1019.54
2017-06-22T04:23:15.675Z,1019.57
2017-06-22T04:24:16.320Z,1019.61
2017-06-22T04:25:16.965Z,1019.64
2017-06-22T04:26:17.608Z,1019.68
2017-06-22T04:27:18.250Z,1019.62
2017-06-22T04:28:18.893Z,1019.63
2017-06-22T04:29:19.540Z,1019.68
2017-06-22T04:30:20.383Z,1019.69
2017-06-22T04:31:21.026Z,1019.67
2017-06-22T04:32:21.667Z,1019.73
2017-06-22T04:33:22.315Z,1019.66
2017-06-22T04:34:22.959Z,1019.72
2017-06-22T04:35:23.605Z,1019.66
2017-06-22T04:36:24.247Z,1019.72
2017-06-22T04:37:24.890Z,1019.70
2017-06-22T04:38:25.682Z,1019.80
2017-06-22T04:39:26.327Z,1019.72
2017-06-22T04:40:26.969Z,1019.83
2017-06-22T04:41:27.610Z,1019.79
2017-06-22T04:42:28.255Z,1019.83
2017-06-22T04:43:28.898Z,1019.82
2017-06-22T04:44:29.545Z,1019.87
2017-06-22T04:45:30.186Z,1019.87
2017-06-22T04:46:31.031Z,1019.79
2017-06-22T04:47:31.673Z,1019.85
2017-06-22T04:48:32.315Z,1019.92
2017-06-22T04:49:32.961Z,1019.83
2017-06-22T04:50:33.601Z,1019.87
2017-06-22T04:51:34.247Z,1019.82
2017-06-22T04:52:34.893Z,1019.89
2017-06-22T04:53:35.534Z,1019.91
2017-06-22T04:54:36.627Z,1019.89
2017-06-22T04:55:37.271Z,1019.96
2017-06-22T04:56:37.917Z,1019.96
2017-06-22T04:57:38.561Z,1019.96
2017-06-22T04:58:39.203Z,1019.87
2017-06-22T04:59:39.848Z,1019.86
2017-06-22T05:00:40.490Z,1019.96
2017-06-22T05:01:41.131Z,1019.91
2017-06-22T05:02:41.773Z,1019.95
2017-06-22T05:03:42.571Z,1019.85
2017-06-22T05:04:43.213Z,1019.89
2017-06-22T05:05:43.854Z,1019.87
2017-06-22T05:06:44.497Z,1019.87
2017-06-22T05:07:45.143Z,1019.87
2017-06-22T05:08:45.787Z,1019.98
2017-06-22T05:09:46.430Z,1019.98
2017-06-22T05:10:47.071Z,1020.04
2017-06-22T05:11:47.965Z,1019.97
2017-06-22T05:12:48.609Z,1019.97
2017-06-22T05:13:49.251Z,1019.98
2017-06-22T05:14:49.896Z,1020.01
2017-06-22T05:15:50.542Z,1020.01
2017-06-22T05:16:51.185Z,1020.03
2017-06-22T05:17:51.825Z,1019.95
2017-06-22T05:18:52.473Z,1019.97
2017-06-22T05:19:53.313Z,1019.98
2017-06-22T05:20:53.959Z,1020.05
2017-06-22T05:21:54.600Z,1019.95
2017-06-22T05:22:55.242Z,1020.04
2017-06-22T05:23:55.884Z,1020.07
2017-06-22T05:24:56.527Z,1020.04
2017-06-22T05:25:57.172Z,1020.07
2017-06-22T05:26:57.813Z,1020.14
2017-06-22T05:27:58.659Z,1020.08
2017-06-22T05:28:59.302Z,1020.09
2017-06-22T05:29:59.944Z,1020.12
2017-06-22T05:31:00.588Z,1020.12
2017-06-22T05:32:01.231Z,1020.07
2017-06-22T05:33:01.876Z,1020.09
2017-06-22T05:34:02.521Z,1020.18
2017-06-22T05:35:03.162Z,1020.14
2017-06-22T05:36:03.806Z,1020.09
2017-06-22T05:37:04.748Z,1020.16
2017-06-22T05:38:05.401Z,1020.14
2017-06-22T05:39:06.034Z,1020.07
2017-06-22T05:40:06.678Z,1020.15
2017-06-22T05:41:07.323Z,1020.18
2017-06-22T05:42:07.966Z,1020.16
2017-06-22T05:43:08.611Z,1020.10
2017-06-22T05:44:09.253Z,1020.14
2017-06-22T05:45:10.195Z,1020.19
2017-06-22T05:46:10.838Z,1020.15
2017-06-22T05:47:11.480Z,1020.30
2017-06-22T05:48:12.123Z,1020.22
2017-06-22T05:49:12.769Z,1020.22
2017-06-22T05:50:13.414Z,1020.25
2017-06-22T05:51:14.054Z,1020.26
2017-06-22T05:52:14.696Z,1020.30
2017-06-22T05:53:15.592Z,1020.28
2017-06-22T05:54:16.234Z,1020.32
2017-06-22T05:55:16.877Z,1020.33
2017-06-22T05:56:17.520Z,1020.35
2017-06-22T05:57:18.163Z,1020.34
2017-06-22T05:58:18.807Z,1020.34
2017-06-22T05:59:19.448Z,1020.39
2017-06-22T06:00:20.091Z,1020.38
2017-06-22T06:01:20.935Z,1020.39
2017-06-22T06:02:21.580Z,1020.42
2017-06-22T06:03:22.221Z,1020.51
2017-06-22T06:04:22.865Z,1020.46
2017-06-22T06:05:23.507Z,1020.44
2017-06-22T06:06:24.148Z,1020.44
2017-06-22T06:07:24.795Z,1020.46
2017-06-22T06:08:25.437Z,1020.46
2017-06-22T06:09:26.281Z,1020.44
2017-06-22T06:10:26.926Z,1020.47
2017-06-22T06:11:27.572Z,1020.51
2017-06-22T06:12:28.213Z,1020.50
2017-06-22T06:13:28.859Z,1020.55
2017-06-22T06:14:29.505Z,1020.50
2017-06-22T06:15:30.149Z,1020.50
2017-06-22T06:16:30.791Z,1020.53
2017-06-22T06:17:31.431Z,1020.57
2017-06-22T06:18:32.378Z,1020.56
2017-06-22T06:19:33.022Z,1020.56
2017-06-22T06:20:33.665Z,1020.60
2017-06-22T06:21:36.709Z,1020.51
2017-06-22T06:22:37.350Z,1020.55
2017-06-22T06:23:37.992Z,1020.54
2017-06-22T06:24:38.639Z,1020.57
2017-06-22T06:25:39.283Z,1020.49
2017-06-22T06:26:40.174Z,1020.52
2017-06-22T06:27:40.820Z,1020.46
2017-06-22T06:28:41.461Z,1020.49
2017-06-22T06:29:42.103Z,1020.51
2017-06-22T06:30:42.748Z,1020.50
2017-06-22T06:31:43.391Z,1020.52
2017-06-22T06:32:44.037Z,1020.52
2017-06-22T06:33:44.679Z,1020.63
2017-06-22T06:34:45.475Z,1020.63
2017-06-22T06:35:46.117Z,1020.57
2017-06-22T06:36:46.763Z,1020.53
2017-06-22T06:37:47.406Z,1020.64
2017-06-22T06:38:48.049Z,1020.63
2017-06-22T06:39:48.691Z,1020.63
2017-06-22T06:40:49.335Z,1020.63
2017-06-22T06:41:49.977Z,1020.64
2017-06-22T06:42:50.819Z,1020.58
2017-06-22T06:43:51.463Z,1020.71
2017-06-22T06:44:52.106Z,1020.70
2017-06-22T06:45:52.748Z,1020.70
2017-06-22T06:46:53.391Z,1020.71
2017-06-22T06:47:54.033Z,1020.71
2017-06-22T06:48:54.679Z,1020.76
2017-06-22T06:49:55.323Z,1020.73
2017-06-22T06:50:56.167Z,1020.75
2017-06-22T06:51:57.011Z,1020.78
2017-06-22T06:52:57.658Z,1020.73
2017-06-22T06:53:58.302Z,1020.68
2017-06-22T06:54:58.944Z,1020.76
2017-06-22T06:55:59.586Z,1020.81
2017-06-22T06:57:00.229Z,1020.68
2017-06-22T06:58:00.872Z,1020.77
2017-06-22T06:59:01.516Z,1020.78
2017-06-22T07:00:02.361Z,1020.81
2017-06-22T07:01:03.002Z,1020.80
2017-06-22T07:02:03.646Z,1020.90
2017-06-22T07:03:04.289Z,1020.93
2017-06-22T07:04:04.930Z,1020.83
2017-06-22T07:05:05.576Z,1020.88
2017-06-22T07:06:06.221Z,1020.96
2017-06-22T07:07:06.865Z,1020.86
2017-06-22T07:08:07.706Z,1021.00
2017-06-22T07:09:08.350Z,1020.84
2017-06-22T07:10:08.994Z,1020.90
2017-06-22T07:11:09.636Z,1020.94
2017-06-22T07:12:10.281Z,1021.00
2017-06-22T07:13:10.921Z,1020.90
2017-06-22T07:14:11.562Z,1020.98
2017-06-22T07:15:12.205Z,1020.91
2017-06-22T07:16:13.050Z,1020.97
2017-06-22T07:17:13.690Z,1020.92
2017-06-22T07:18:14.332Z,1021.03
2017-06-22T07:19:14.975Z,1021.00
2017-06-22T07:20:15.618Z,1020.92
2017-06-22T07:21:16.261Z,1021.02
2017-06-22T07:22:16.906Z,1021.04
2017-06-22T07:23:17.548Z,1021.00
2017-06-22T07:24:18.389Z,1021.10
2017-06-22T07:25:19.034Z,1021.03
2017-06-22T07:26:19.677Z,1021.11
2017-06-22T07:27:20.321Z,1021.05
2017-06-22T07:28:20.965Z,1021.14
2017-06-22T07:29:21.610Z,1021.14
2017-06-22T07:30:22.254Z,1021.17
2017-06-22T07:31:22.896Z,1021.19
2017-06-22T07:32:23.537Z,1021.11
2017-06-22T07:33:24.331Z,1021.15
2017-06-22T07:34:24.974Z,1021.23
2017-06-22T07:35:25.619Z,1021.15
2017-06-22T07:36:26.261Z,1021.24
2017-06-22T07:37:26.905Z,1021.25
2017-06-22T07:38:27.547Z,1021.19
2017-06-22T07:39:28.191Z,1021.26
2017-06-22T07:40:28.834Z,1021.29
2017-06-22T07:41:29.777Z,1021.27
2017-06-22T07:42:30.419Z,1021.22
2017-06-22T07:43:31.060Z,1021.29
2017-06-22T07:44:31.703Z,1021.30
2017-06-22T07:45:32.345Z,1021.31
2017-06-22T07:46:32.989Z,1021.35
2017-06-22T07:47:33.632Z,1021.30
2017-06-22T07:48:34.279Z,1021.35
2017-06-22T07:49:35.216Z,1021.37
2017-06-22T07:50:35.860Z,1021.41
2017-06-22T07:51:36.502Z,1021.34
2017-06-22T07:52:37.148Z,1021.38
2017-06-22T07:53:37.788Z,1021.41
2017-06-22T07:54:38.431Z,1021.39
2017-06-22T07:55:39.075Z,1021.45
2017-06-22T07:56:39.716Z,1021.42
2017-06-22T07:57:40.560Z,1021.39
2017-06-22T07:58:41.205Z,1021.39
2017-06-22T07:59:41.849Z,1021.42
2017-06-22T08:00:42.494Z,1021.39
2017-06-22T08:01:43.135Z,1021.39
2017-06-22T08:02:43.778Z,1021.45
2017-06-22T08:03:44.420Z,1021.45
2017-06-22T08:04:45.065Z,1021.48
2017-06-22T08:05:45.708Z,1021.44
2017-06-22T08:06:46.505Z,1021.42
2017-06-22T08:07:47.147Z,1021.40
2017-06-22T08:08:47.789Z,1021.43
2017-06-22T08:09:48.435Z,1021.47
2017-06-22T08:10:49.080Z,1021.44
2017-06-22T08:11:49.725Z,1021.49
2017-06-22T08:12:50.369Z,1021.49
2017-06-22T08:13:51.015Z,1021.47
2017-06-22T08:14:51.858Z,1021.47
2017-06-22T08:15:52.503Z,1021.49
2017-06-22T08:16:53.146Z,1021.58
2017-06-22T08:17:53.790Z,1021.52
2017-06-22T08:18:54.435Z,1021.58
2017-06-22T08:19:55.083Z,1021.54
2017-06-22T08:20:55.726Z,1021.58
2017-06-22T08:21:56.370Z,1021.59
2017-06-22T08:22:57.415Z,1021.63
2017-06-22T08:23:58.059Z,1021.69
2017-06-22T08:24:58.701Z,1021.61
2017-06-22T08:25:59.347Z,1021.64
2017-06-22T08:26:59.990Z,1021.66
2017-06-22T08:28:00.633Z,1021.65
2017-06-22T08:29:01.278Z,1021.67
2017-06-22T08:30:01.922Z,1021.68
2017-06-22T08:31:02.823Z,1021.57
2017-06-22T08:32:03.470Z,1021.69
2017-06-22T08:33:04.117Z,1021.65
2017-06-22T08:34:04.763Z,1021.69
2017-06-22T08:35:05.407Z,1021.77
2017-06-22T08:36:06.050Z,1021.79
2017-06-22T08:37:06.692Z,1021.84
2017-06-22T08:38:07.336Z,1021.71
2017-06-22T08:39:08.130Z,1021.83
2017-06-22T08:40:08.771Z,1021.71
2017-06-22T08:41:09.415Z,1021.80
2017-06-22T08:42:10.060Z,1021.79
2017-06-22T08:43:10.702Z,1021.82
2017-06-22T08:44:11.346Z,1021.87
2017-06-22T08:45:11.991Z,1021.92
2017-06-22T08:46:12.636Z,1021.88
2017-06-22T08:47:13.281Z,1021.88
2017-06-22T08:48:14.125Z,1021.93
2017-06-22T08:49:14.769Z,1021.91
2017-06-22T08:50:15.412Z,1021.94
2017-06-22T08:51:16.057Z,1021.95
2017-06-22T08:52:16.703Z,1022.00
2017-06-22T08:53:17.347Z,1021.95
2017-06-22T08:54:17.993Z,1021.93
2017-06-22T08:55:18.634Z,1021.93
2017-06-22T08:56:19.579Z,1022.02
2017-06-22T08:57:20.222Z,1022.05
2017-06-22T08:58:20.866Z,1021.96
2017-06-22T08:59:21.509Z,1021.97
2017-06-22T09:00:22.154Z,1021.96
2017-06-22T09:01:22.799Z,1021.98
2017-06-22T09:02:23.444Z,1021.98
2017-06-22T09:03:24.088Z,1021.94
2017-06-22T09:04:24.934Z,1021.94
2017-06-22T09:05:25.579Z,1021.91
2017-06-22T09:06:26.224Z,1021.89
2017-06-22T09:07:26.868Z,1021.96
2017-06-22T09:08:27.515Z,1021.97
2017-06-22T09:09:28.158Z,1022.01
2017-06-22T09:10:28.805Z,1022.04
2017-06-22T09:11:29.446Z,1022.01
2017-06-22T09:12:30.291Z,1022.00
2017-06-22T09:13:30.938Z,1022.07
2017-06-22T09:14:31.583Z,1021.99
2017-06-22T09:15:32.229Z,1021.98
2017-06-22T09:16:32.875Z,1021.98
2017-06-22T09:17:33.517Z,1021.99
2017-06-22T09:18:34.160Z,1022.01
2017-06-22T09:19:34.805Z,1022.09
2017-06-22T09:20:35.448Z,1022.04
2017-06-22T09:21:36.291Z,1022.07
2017-06-22T09:22:36.937Z,1022.13
2017-06-22T09:23:37.579Z,1022.03
2017-06-22T09:24:38.225Z,1022.04
2017-06-22T09:25:38.867Z,1022.05
2017-06-22T09:26:39.512Z,1022.09
2017-06-22T09:27:40.155Z,1022.04
2017-06-22T09:28:40.859Z,1022.05
2017-06-22T09:29:41.705Z,1022.08
2017-06-22T09:30:42.348Z,1022.07
2017-06-22T09:31:42.996Z,1022.04
2017-06-22T09:32:43.639Z,1022.00
2017-06-22T09:33:44.284Z,1021.98
2017-06-22T09:34:44.926Z,1021.98
2017-06-22T09:35:45.569Z,1022.03
2017-06-22T09:36:46.212Z,1021.98
2017-06-22T09:37:47.057Z,1022.06
2017-06-22T09:38:47.702Z,1022.06
2017-06-22T09:39:48.345Z,1022.13
2017-06-22T09:40:48.991Z,1022.11
2017-06-22T09:41:49.632Z,1022.13
2017-06-22T09:42:50.279Z,1022.17
2017-06-22T09:43:50.923Z,1022.16
2017-06-22T09:44:51.567Z,1022.19
2017-06-22T09:45:52.413Z,1022.18
2017-06-22T09:46:53.058Z,1022.17
2017-06-22T09:47:53.701Z,1022.10
2017-06-22T09:48:54.344Z,1022.17
2017-06-22T09:49:54.988Z,1022.12
2017-06-22T09:50:55.635Z,1022.16
2017-06-22T09:51:56.281Z,1022.17
2017-06-22T09:52:56.928Z,1022.20
2017-06-22T09:53:57.725Z,1022.16
2017-06-22T09:54:58.369Z,1022.18
2017-06-22T09:55:59.012Z,1022.14
2017-06-22T09:56:59.657Z,1022.14
2017-06-22T09:58:00.303Z,1022.16
2017-06-22T09:59:00.951Z,1022.16
2017-06-22T10:00:01.593Z,1022.19
2017-06-22T10:01:02.239Z,1022.11
2017-06-22T10:02:02.884Z,1022.17
2017-06-22T10:03:03.728Z,1022.20
2017-06-22T10:04:04.378Z,1022.12
2017-06-22T10:05:05.020Z,1022.15
2017-06-22T10:06:05.665Z,1022.21
2017-06-22T10:07:06.313Z,1022.11
2017-06-22T10:08:06.952Z,1022.16
2017-06-22T10:09:07.598Z,1022.14
2017-06-22T10:10:08.244Z,1022.18
2017-06-22T10:11:09.036Z,1022.16
2017-06-22T10:12:09.680Z,1022.18
2017-06-22T10:13:10.327Z,1022.13
2017-06-22T10:14:10.968Z,1022.11
2017-06-22T10:15:11.611Z,1022.21
2017-06-22T10:16:12.256Z,1022.19
2017-06-22T10:17:12.902Z,1022.32
2017-06-22T10:18:13.549Z,1022.20
2017-06-22T10:19:14.398Z,1022.18
2017-06-22T10:20:15.043Z,1022.15
2017-06-22T10:21:15.684Z,1022.31
2017-06-22T10:22:16.329Z,1022.18
2017-06-22T10:23:16.973Z,1022.23
2017-06-22T10:24:17.619Z,1022.32
2017-06-22T10:25:18.264Z,1022.30
2017-06-22T10:26:18.909Z,1022.31
2017-06-22T10:27:19.705Z,1022.29
2017-06-22T10:28:20.348Z,1022.38
2017-06-22T10:29:20.993Z,1022.36
2017-06-22T10:30:21.639Z,1022.39
2017-06-22T10:31:22.286Z,1022.33
2017-06-22T10:32:22.934Z,1022.39
2017-06-22T10:33:23.579Z,1022.30
2017-06-22T10:34:24.221Z,1022.31
2017-06-22T10:35:24.864Z,1022.26
2017-06-22T10:36:25.858Z,1022.27
2017-06-22T10:37:26.504Z,1022.27
2017-06-22T10:38:27.148Z,1022.23
2017-06-22T10:39:27.794Z,1022.22
2017-06-22T10:40:28.436Z,1022.27
2017-06-22T10:41:29.083Z,1022.29
2017-06-22T10:42:29.727Z,1022.28
2017-06-22T10:43:30.372Z,1022.21
2017-06-22T10:44:31.266Z,1022.29
2017-06-22T10:45:31.910Z,1022.23
2017-06-22T10:46:32.557Z,1022.27
2017-06-22T10:47:33.200Z,1022.30
2017-06-22T10:48:33.844Z,1022.30
2017-06-22T10:49:34.489Z,1022.18
2017-06-22T10:50:35.133Z,1022.26
2017-06-22T10:51:35.781Z,1022.20
2017-06-22T10:52:36.575Z,1022.35
2017-06-22T10:53:37.217Z,1022.27
2017-06-22T10:54:37.865Z,1022.23
2017-06-22T10:55:38.511Z,1022.31
2017-06-22T10:56:39.157Z,1022.29
2017-06-22T10:57:39.802Z,1022.29
2017-06-22T10:58:40.447Z,1022.25
2017-06-22T10:59:41.089Z,1022.29
2017-06-22T11:00:42.085Z,1022.26
2017-06-22T11:01:42.727Z,1022.17
2017-06-22T11:02:43.371Z,1022.22
2017-06-22T11:03:44.018Z,1022.15
2017-06-22T11:04:44.662Z,1022.20
2017-06-22T11:05:45.307Z,1022.27
2017-06-22T11:06:45.903Z,1022.27
2017-06-22T11:07:46.496Z,1022.18
2017-06-22T11:08:47.292Z,1022.25
2017-06-22T11:09:47.937Z,1022.25
2017-06-22T11:10:48.580Z,1022.26
2017-06-22T11:11:49.224Z,1022.21
2017-06-22T11:12:49.866Z,1022.26
2017-06-22T11:13:50.513Z,1022.27
2017-06-22T11:14:51.157Z,1022.21
2017-06-22T11:15:51.802Z,1022.18
2017-06-22T11:16:52.447Z,1022.18
2017-06-22T11:17:53.544Z,1022.13
2017-06-22T11:18:54.191Z,1022.22
2017-06-22T11:19:54.833Z,1022.18
2017-06-22T11:20:55.478Z,1022.22
2017-06-22T11:21:56.179Z,1022.16
2017-06-22T11:22:56.822Z,1022.16
2017-06-22T11:23:57.467Z,1022.16
2017-06-22T11:24:58.168Z,1022.20
2017-06-22T11:25:59.165Z,1022.25
2017-06-22T11:26:59.807Z,1022.21
2017-06-22T11:28:00.452Z,1022.29
2017-06-22T11:29:01.098Z,1022.23
2017-06-22T11:30:01.746Z,1022.23
2017-06-22T11:31:02.391Z,1022.19
2017-06-22T11:32:03.042Z,1022.24
2017-06-22T11:33:03.683Z,1022.34
2017-06-22T11:34:04.678Z,1022.22
2017-06-22T11:35:05.326Z,1022.25
2017-06-22T11:36:05.970Z,1022.26
2017-06-22T11:37:06.612Z,1022.28
2017-06-22T11:38:07.255Z,1022.29
2017-06-22T11:39:07.902Z,1022.31
2017-06-22T11:40:08.548Z,1022.32
2017-06-22T11:41:09.189Z,1022.32
2017-06-22T11:42:10.087Z,1022.28
2017-06-22T11:43:10.735Z,1022.35
2017-06-22T11:44:11.381Z,1022.33
2017-06-22T11:45:12.025Z,1022.36
2017-06-22T11:46:12.667Z,1022.39
2017-06-22T11:47:13.312Z,1022.37
2017-06-22T11:48:13.957Z,1022.37
2017-06-22T11:49:14.599Z,1022.43
2017-06-22T11:50:15.245Z,1022.49
2017-06-22T11:51:16.290Z,1022.47
2017-06-22T11:52:16.935Z,1022.44
2017-06-22T11:53:17.581Z,1022.51
2017-06-22T11:54:18.225Z,1022.59
2017-06-22T11:55:18.873Z,1022.61
2017-06-22T11:56:19.520Z,1022.57
2017-06-22T11:57:20.162Z,1022.64
2017-06-22T11:58:20.805Z,1022.61
2017-06-22T11:59:21.650Z,1022.64
2017-06-22T12:00:22.300Z,1022.70
2017-06-22T12:01:22.944Z,1022.76
2017-06-22T12:02:23.588Z,1022.66
2017-06-22T12:03:24.236Z,1022.78
2017-06-22T12:04:24.879Z,1022.75
2017-06-22T12:05:25.572Z,1022.70
2017-06-22T12:06:26.217Z,1022.76
2017-06-22T12:07:27.010Z,1022.62
2017-06-22T12:08:27.657Z,1022.74
2017-06-22T12:09:28.304Z,1022.63
2017-06-22T12:10:29.155Z,1022.63
2017-06-22T12:11:29.799Z,1022.67
2017-06-22T12:12:30.449Z,1022.57
2017-06-22T12:13:31.090Z,1022.59